National Weather Service Raw Text Product

Displaying AFOS PIL: TAFALO Received: 2018-08-11 07:28 UTC


336 
FTUS43 KDMX 110728 AAB
TAFALO
TAF AMD
KALO 110728Z 1107/1206 VRB02KT 3/4SM BR VV004
     FM111300 00000KT 5SM BR FEW200
     FM111400 VRB03KT P6SM SCT250=